Time;durP1;ratioP1;P1;durP2;ratioP2;P2;SDS_P1;SDS_P2;PMS_P1;PMS_P2;Temp;Humidity;BMP_temperature;BMP_pressure;BME280_temperature;BME280_humidity;BME280_pressure;Samples;Min_cycle;Max_cycle;Signal;HPM_P1;HPM_P2
2022/07/31 00:00:51;;;;;;;3.65;0.93;;;18.80;99.90;;;;;;6336898;22;20026;-90
2022/07/31 00:03:17;;;;;;;1.35;0.80;;;18.80;99.90;;;;;;6285964;22;20339;-88
2022/07/31 00:05:43;;;;;;;1.98;1.02;;;18.80;99.90;;;;;;6285519;22;20398;-88
2022/07/31 00:12:10;;;;;;;1.60;0.90;;;18.80;99.90;;;;;;6244365;23;20098;-90
2022/07/31 00:14:35;;;;;;;4.07;0.95;;;18.70;99.90;;;;;;6218567;23;20058;-89
2022/07/31 00:17:33;;;;;;;1.80;0.90;;;18.70;99.90;;;;;;6193673;23;20016;-90
2022/07/31 00:19:59;;;;;;;;;;;18.70;99.90;;;;;;6131839;23;20021;-90
2022/07/31 00:22:34;;;;;;;2.30;1.00;;;18.70;99.90;;;;;;6131516;23;20293;-93
2022/07/31 00:25:00;;;;;;;1.60;0.90;;;18.70;99.90;;;;;;6131110;23;20025;-91
2022/07/31 00:27:26;;;;;;;2.13;0.98;;;18.70;99.90;;;;;;6131283;23;20344;-91
2022/07/31 00:29:51;;;;;;;2.42;0.80;;;18.80;99.90;;;;;;6180707;23;20027;-90
2022/07/31 00:32:17;;;;;;;2.20;0.80;;;18.80;99.90;;;;;;6197148;23;20020;-89
2022/07/31 00:35:07;;;;;;;1.33;0.80;;;18.70;99.90;;;;;;6195346;23;20059;-91
2022/07/31 00:37:59;;;;;;;2.53;0.88;;;18.80;99.90;;;;;;6195015;23;20016;-89
2022/07/31 00:40:35;;;;;;;1.73;0.88;;;18.80;99.90;;;;;;6300989;22;20023;-93
2022/07/31 00:43:01;;;;;;;2.90;0.90;;;18.80;99.90;;;;;;6313568;22;20094;-91
2022/07/31 00:49:29;;;;;;;2.13;0.85;;;18.80;99.90;;;;;;6306743;22;20124;-88
2022/07/31 00:51:54;;;;;;;2.00;1.10;;;18.80;99.90;;;;;;6287441;22;20022;-94
2022/07/31 00:54:20;;;;;;;2.33;0.95;;;18.80;99.90;;;;;;6287837;22;20343;-91
2022/07/31 00:56:46;;;;;;;1.92;1.05;;;18.80;99.90;;;;;;6287589;22;20015;-92
2022/07/31 01:16:46;;;;;;;2.53;1.20;;;18.80;99.90;;;;;;6309796;22;20023;-91
2022/07/31 01:19:40;;;;;;;2.80;1.20;;;18.70;99.90;;;;;;6287732;22;20432;-91
2022/07/31 02:19:47;;;;;;;2.53;1.27;;;18.30;99.90;;;;;;6339762;22;20026;-91
2022/07/31 02:22:14;;;;;;;4.30;1.40;;;18.30;99.90;;;;;;6286873;22;20019;-89
2022/07/31 02:24:39;;;;;;;2.75;1.30;;;18.30;99.90;;;;;;6286755;22;20015;-90
2022/07/31 02:27:06;;;;;;;2.45;1.30;;;18.30;99.90;;;;;;6286749;22;20091;-90
2022/07/31 02:29:32;;;;;;;3.15;1.10;;;18.30;99.90;;;;;;6286639;22;20332;-91
2022/07/31 02:32:00;;;;;;;2.70;1.33;;;18.30;99.90;;;;;;6312345;22;20059;-91
2022/07/31 02:34:27;;;;;;;2.70;0.95;;;18.30;99.90;;;;;;6286885;22;20019;-90
2022/07/31 02:36:53;;;;;;;2.50;1.25;;;18.30;99.90;;;;;;6286613;22;20018;-89
2022/07/31 02:39:20;;;;;;;2.78;1.15;;;18.30;99.90;;;;;;6286421;22;20011;-89
2022/07/31 02:41:47;;;;;;;2.25;1.20;;;18.30;99.90;;;;;;6286055;22;20019;-89
2022/07/31 02:44:14;;;;;;;3.70;1.35;;;18.30;99.90;;;;;;6286424;22;20057;-89
2022/07/31 02:46:42;;;;;;;3.08;1.30;;;18.30;99.90;;;;;;6286823;22;20347;-89
2022/07/31 02:49:08;;;;;;;2.55;1.20;;;18.30;99.90;;;;;;6286437;22;20022;-90
2022/07/31 02:51:34;;;;;;;2.92;1.30;;;18.30;99.90;;;;;;6286546;22;20014;-89
2022/07/31 02:54:00;;;;;;;3.90;1.70;;;18.30;99.90;;;;;;6286172;22;20093;-89
2022/07/31 02:56:29;;;;;;;2.55;1.30;;;18.40;99.90;;;;;;6286589;22;20119;-91
2022/07/31 02:58:54;;;;;;;2.58;1.20;;;18.40;99.90;;;;;;6286563;22;20015;-93
2022/07/31 03:01:20;;;;;;;2.25;1.10;;;18.40;99.90;;;;;;6286439;22;20015;-92
2022/07/31 03:04:09;;;;;;;2.05;0.98;;;18.40;99.90;;;;;;6286506;22;20335;-92
2022/07/31 03:06:35;;;;;;;2.45;1.40;;;18.40;99.90;;;;;;6286466;22;20015;-90
2022/07/31 03:09:01;;;;;;;;;;;18.30;99.90;;;;;;6286705;22;20026;-90
2022/07/31 03:11:26;;;;;;;2.40;1.30;;;18.40;99.90;;;;;;6286258;22;19918;-89
2022/07/31 03:13:54;;;;;;;1.92;1.10;;;18.30;99.90;;;;;;6286216;22;20010;-90
2022/07/31 03:16:21;;;;;;;2.80;1.30;;;18.30;99.90;;;;;;6286154;22;20530;-91
2022/07/31 03:18:51;;;;;;;3.28;1.20;;;18.30;99.90;;;;;;6280790;22;20019;-90
2022/07/31 03:21:22;;;;;;;3.72;1.20;;;18.30;99.90;;;;;;6281661;22;20019;-90
2022/07/31 03:23:49;;;;;;;2.60;1.25;;;18.30;99.90;;;;;;6281205;22;20467;-91
2022/07/31 03:26:15;;;;;;;2.53;1.17;;;18.40;99.90;;;;;;6281046;22;20019;-91
2022/07/31 03:28:41;;;;;;;3.17;1.10;;;18.30;99.90;;;;;;6255379;22;20014;-90
2022/07/31 03:31:07;;;;;;;2.45;1.20;;;18.30;99.90;;;;;;6280887;22;20124;-88
2022/07/31 03:33:33;;;;;;;3.83;1.40;;;18.30;99.90;;;;;;6280655;22;20449;-89
2022/07/31 03:35:59;;;;;;;4.55;1.33;;;18.30;99.90;;;;;;6280795;22;20016;-90
2022/07/31 03:38:26;;;;;;;3.70;0.88;;;18.30;99.90;;;;;;6280757;22;20019;-88
2022/07/31 03:40:52;;;;;;;;;;;18.30;99.90;;;;;;6281276;22;20019;-89
2022/07/31 03:43:18;;;;;;;3.38;1.50;;;18.30;99.90;;;;;;6281045;22;19923;-90
2022/07/31 03:45:45;;;;;;;2.13;1.20;;;18.20;99.90;;;;;;6280992;22;20015;-90
2022/07/31 03:48:12;;;;;;;2.03;1.20;;;18.10;99.90;;;;;;6306635;22;20090;-90
2022/07/31 03:50:39;;;;;;;;;;;18.20;99.90;;;;;;6281341;22;20102;-88
2022/07/31 03:53:05;;;;;;;2.58;1.23;;;18.20;99.90;;;;;;6282865;22;19919;-91
2022/07/31 03:55:34;;;;;;;2.50;1.30;;;18.10;99.90;;;;;;6282857;22;20015;-91
2022/07/31 03:58:02;;;;;;;2.25;1.08;;;18.00;99.90;;;;;;6282693;22;20097;-90
2022/07/31 04:00:29;;;;;;;2.55;1.20;;;18.00;99.90;;;;;;6282647;22;20019;-91
2022/07/31 04:02:55;;;;;;;;;;;18.00;99.90;;;;;;6283228;22;20482;-90
2022/07/31 04:05:22;;;;;;;3.90;1.48;;;17.90;99.90;;;;;;6282780;22;19953;-91
2022/07/31 04:07:47;;;;;;;2.47;1.13;;;17.90;99.90;;;;;;6282961;22;20073;-91
2022/07/31 04:10:16;;;;;;;2.55;1.45;;;17.90;99.90;;;;;;6257529;22;20019;-91
2022/07/31 04:12:42;;;;;;;2.80;1.77;;;17.90;99.90;;;;;;6281939;22;20019;-92
2022/07/31 04:15:08;;;;;;;2.95;1.30;;;17.90;99.90;;;;;;6282991;22;20022;-89
2022/07/31 04:17:33;;;;;;;2.10;1.10;;;17.90;99.90;;;;;;6282927;22;20026;-92
2022/07/31 04:19:59;;;;;;;2.67;1.33;;;17.90;99.90;;;;;;6283188;22;20057;-95
2022/07/31 04:22:25;;;;;;;2.78;1.17;;;17.90;99.90;;;;;;6257486;22;20058;-95
2022/07/31 04:24:50;;;;;;;2.22;1.20;;;17.90;99.90;;;;;;6283053;22;20019;-90
2022/07/31 04:27:17;;;;;;;3.72;1.20;;;17.90;99.90;;;;;;6257424;22;20012;-91
2022/07/31 04:29:45;;;;;;;;;;;17.90;99.90;;;;;;6257900;22;20019;-89
2022/07/31 04:32:37;;;;;;;3.25;1.45;;;17.90;99.90;;;;;;6257118;22;19994;-92
2022/07/31 04:35:05;;;;;;;3.10;1.20;;;18.00;99.90;;;;;;6257421;22;20016;-91
2022/07/31 04:37:32;;;;;;;2.95;1.23;;;18.00;99.90;;;;;;6257754;22;20090;-91
2022/07/31 04:39:58;;;;;;;2.78;1.30;;;18.00;99.90;;;;;;6257368;22;20055;-93
2022/07/31 04:42:23;;;;;;;3.42;1.30;;;18.10;99.90;;;;;;6282174;22;20026;-90
2022/07/31 04:44:49;;;;;;;3.15;1.63;;;18.10;99.90;;;;;;6282772;22;20019;-92
2022/07/31 04:47:15;;;;;;;2.63;1.02;;;18.20;99.90;;;;;;6283230;22;20008;-90
2022/07/31 04:49:40;;;;;;;3.55;1.45;;;18.20;99.90;;;;;;6257074;22;20081;-91
2022/07/31 04:52:59;;;;;;;2.50;1.20;;;18.20;99.90;;;;;;6257385;22;20019;-92
2022/07/31 04:55:24;;;;;;;2.03;1.05;;;18.30;99.90;;;;;;6229702;22;20022;-90
2022/07/31 04:57:50;;;;;;;2.28;1.08;;;18.30;99.90;;;;;;6256441;22;20043;-92
2022/07/31 05:00:16;;;;;;;2.05;0.95;;;18.30;99.90;;;;;;6256763;22;20495;-89
2022/07/31 05:02:41;;;;;;;2.25;1.00;;;18.30;99.90;;;;;;6256431;22;20314;-92
2022/07/31 05:05:07;;;;;;;2.10;0.98;;;18.30;99.90;;;;;;6281241;22;20084;-89
2022/07/31 05:07:33;;;;;;;1.83;1.00;;;18.30;99.90;;;;;;6256621;22;20061;-89
2022/07/31 05:10:03;;;;;;;2.40;1.00;;;18.40;99.90;;;;;;6256402;22;20436;-90
2022/07/31 05:12:28;;;;;;;1.85;1.00;;;18.30;99.90;;;;;;6256859;22;20463;-89
2022/07/31 05:14:54;;;;;;;4.82;1.38;;;18.30;99.90;;;;;;6256682;22;20023;-91
2022/07/31 05:17:20;;;;;;;1.95;1.08;;;18.40;99.90;;;;;;6256455;22;20061;-92
2022/07/31 05:19:46;;;;;;;2.75;1.17;;;18.40;99.90;;;;;;6256343;22;20020;-92
2022/07/31 05:22:12;;;;;;;2.88;1.30;;;18.40;99.90;;;;;;6256664;22;20019;-91
2022/07/31 05:24:39;;;;;;;3.17;1.27;;;18.40;99.90;;;;;;6256521;22;20015;-92
2022/07/31 05:27:05;;;;;;;2.42;1.02;;;18.50;99.90;;;;;;6256698;22;20034;-90
2022/07/31 05:29:32;;;;;;;2.42;1.23;;;18.50;99.90;;;;;;6256726;22;20489;-91
2022/07/31 05:31:58;;;;;;;2.55;1.52;;;18.50;99.90;;;;;;6256334;22;20015;-88
2022/07/31 05:34:23;;;;;;;3.05;1.10;;;18.60;99.90;;;;;;6256305;22;20015;-90
2022/07/31 05:36:49;;;;;;;2.55;1.10;;;18.60;99.90;;;;;;6281603;22;20332;-90
2022/07/31 05:39:18;;;;;;;2.17;1.20;;;18.60;99.90;;;;;;6256176;22;20011;-89
2022/07/31 05:41:44;;;;;;;2.35;1.10;;;18.60;99.90;;;;;;6256140;22;20023;-87
2022/07/31 05:44:10;;;;;;;3.47;1.30;;;18.60;99.90;;;;;;6256156;22;20015;-88
2022/07/31 05:46:35;;;;;;;2.05;1.10;;;18.70;99.90;;;;;;6255849;22;20045;-92
2022/07/31 05:49:01;;;;;;;2.17;1.10;;;18.70;99.90;;;;;;6273721;22;20046;-89
2022/07/31 05:51:27;;;;;;;2.58;1.27;;;18.70;99.90;;;;;;6281919;22;20069;-92
2022/07/31 05:53:53;;;;;;;2.83;1.30;;;18.70;99.90;;;;;;6281808;22;20444;-91
2022/07/31 05:56:18;;;;;;;3.13;1.25;;;18.70;99.90;;;;;;6282018;22;20011;-91
2022/07/31 05:58:44;;;;;;;3.10;1.58;;;18.70;99.90;;;;;;6281840;22;20016;-93
2022/07/31 06:01:25;;;;;;;2.85;1.30;;;18.70;99.90;;;;;;6256015;22;20025;-91
2022/07/31 06:03:51;;;;;;;2.78;1.20;;;18.80;99.90;;;;;;6281784;22;20015;-91
2022/07/31 06:06:17;;;;;;;2.70;1.35;;;18.90;99.90;;;;;;6281692;22;20081;-91
2022/07/31 06:08:43;;;;;;;3.38;1.73;;;18.90;99.90;;;;;;6256342;22;20015;-91
2022/07/31 06:11:08;;;;;;;2.30;1.13;;;18.90;99.90;;;;;;6282020;22;20011;-92
2022/07/31 06:13:34;;;;;;;2.88;1.30;;;18.90;99.90;;;;;;6281681;22;20065;-90
2022/07/31 06:16:00;;;;;;;2.72;1.30;;;18.90;99.90;;;;;;6281211;22;20108;-91
2022/07/31 06:18:25;;;;;;;3.25;1.65;;;19.00;99.90;;;;;;6282981;22;20015;-90
2022/07/31 06:20:51;;;;;;;4.00;1.60;;;19.00;99.90;;;;;;6286441;22;20094;-90
2022/07/31 06:23:17;;;;;;;2.28;1.17;;;18.90;99.90;;;;;;6286584;22;20014;-94
2022/07/31 06:25:43;;;;;;;3.95;1.40;;;19.00;99.90;;;;;;6286895;22;20057;-93
2022/07/31 06:28:11;;;;;;;2.25;1.13;;;19.00;99.90;;;;;;6286822;22;20007;-92
2022/07/31 06:30:37;;;;;;;2.88;1.33;;;19.00;99.90;;;;;;6286394;22;20023;-91
2022/07/31 06:33:17;;;;;;;2.47;1.20;;;19.00;99.90;;;;;;6286356;22;20034;-92
2022/07/31 06:35:45;;;;;;;2.88;1.38;;;19.10;99.90;;;;;;6286972;22;20018;-93
2022/07/31 06:38:11;;;;;;;3.08;1.48;;;19.10;99.90;;;;;;6286601;22;20021;-92
2022/07/31 06:40:36;;;;;;;3.80;1.50;;;19.10;99.90;;;;;;6286646;22;20101;-92
2022/07/31 06:46:38;;;;;;;3.13;1.77;;;19.20;99.90;;;;;;6261452;22;20018;-93
2022/07/31 06:49:04;;;;;;;3.22;1.60;;;19.30;99.90;;;;;;6286427;22;20382;-91
2022/07/31 06:51:30;;;;;;;3.05;1.50;;;19.30;99.90;;;;;;6286455;22;20072;-94
2022/07/31 06:53:57;;;;;;;2.80;1.50;;;19.40;99.90;;;;;;6285551;22;20015;-91
2022/07/31 06:56:22;;;;;;;;;;;19.40;99.90;;;;;;6285836;22;20080;-92
2022/07/31 06:58:48;;;;;;;5.53;1.75;;;19.50;99.90;;;;;;6286441;22;20323;-92
2022/07/31 07:01:14;;;;;;;3.13;1.60;;;19.60;99.90;;;;;;6284621;22;20029;-92
2022/07/31 07:03:40;;;;;;;3.17;1.50;;;19.60;99.90;;;;;;6284939;22;20339;-90
2022/07/31 07:06:06;;;;;;;3.10;1.63;;;19.60;99.90;;;;;;6311700;22;20015;-93
2022/07/31 07:08:32;;;;;;;3.50;2.00;;;19.60;99.90;;;;;;6286208;22;20007;-91
2022/07/31 07:10:57;;;;;;;3.95;2.10;;;19.70;99.90;;;;;;6286370;22;20382;-93
2022/07/31 07:13:25;;;;;;;3.83;2.05;;;19.70;99.90;;;;;;6286240;22;20018;-91
2022/07/31 07:16:28;;;;;;;4.00;2.10;;;19.70;99.90;;;;;;6286089;22;20140;-92
2022/07/31 07:18:54;;;;;;;2.92;1.63;;;19.80;99.90;;;;;;6267481;22;20098;-94
2022/07/31 07:21:20;;;;;;;3.65;1.70;;;19.80;99.90;;;;;;6286294;22;20046;-88
2022/07/31 07:23:46;;;;;;;3.72;1.80;;;19.80;99.90;;;;;;6285704;22;20441;-88
2022/07/31 07:26:11;;;;;;;4.40;1.90;;;19.80;99.90;;;;;;6285867;22;20054;-93
2022/07/31 07:28:37;;;;;;;3.47;1.80;;;19.80;99.90;;;;;;6285862;22;20022;-90
2022/07/31 07:31:04;;;;;;;4.28;2.42;;;19.80;99.90;;;;;;6285906;22;20034;-91
2022/07/31 07:33:30;;;;;;;3.13;1.70;;;19.80;99.90;;;;;;6286230;22;20516;-91
2022/07/31 07:35:56;;;;;;;3.95;1.95;;;19.80;99.90;;;;;;6288068;22;20011;-92
2022/07/31 07:39:26;;;;;;;3.53;1.88;;;19.90;99.90;;;;;;6298564;22;20018;-92
2022/07/31 07:41:52;;;;;;;3.97;1.65;;;19.90;99.90;;;;;;6205241;23;20021;-91
2022/07/31 07:44:18;;;;;;;4.47;1.80;;;19.90;99.90;;;;;;6197758;22;20056;-90
2022/07/31 07:49:20;;;;;;;3.92;2.00;;;19.90;99.90;;;;;;6344418;22;20027;-90
2022/07/31 07:51:46;;;;;;;4.38;2.15;;;20.00;99.90;;;;;;6285648;22;20019;-92
2022/07/31 07:54:14;;;;;;;3.10;1.70;;;20.00;99.90;;;;;;6284920;22;20018;-90
2022/07/31 07:56:39;;;;;;;3.50;1.85;;;20.00;99.90;;;;;;6285640;22;20440;-91
2022/07/31 07:59:05;;;;;;;3.45;1.75;;;20.10;99.90;;;;;;6285215;22;20090;-89
2022/07/31 08:01:31;;;;;;;3.85;2.03;;;20.10;99.90;;;;;;6285854;22;20015;-91
2022/07/31 08:04:00;;;;;;;3.90;1.90;;;20.10;99.90;;;;;;6285854;22;20007;-91
2022/07/31 08:06:35;;;;;;;3.63;1.98;;;20.10;99.90;;;;;;6243627;23;20070;-91
2022/07/31 08:09:00;;;;;;;5.00;2.58;;;20.20;99.90;;;;;;6193372;23;20020;-92
2022/07/31 08:11:26;;;;;;;3.90;2.10;;;20.20;99.90;;;;;;6193441;23;20069;-91
2022/07/31 08:13:52;;;;;;;4.18;2.25;;;20.30;99.90;;;;;;6193390;23;20071;-91
2022/07/31 08:16:19;;;;;;;4.38;2.05;;;20.30;99.90;;;;;;6193467;23;20067;-91
2022/07/31 08:18:45;;;;;;;4.28;2.20;;;20.30;99.90;;;;;;6193186;23;20048;-92
2022/07/31 08:21:10;;;;;;;4.28;2.10;;;20.40;99.90;;;;;;6193325;23;20023;-89
2022/07/31 08:23:36;;;;;;;3.58;2.17;;;20.50;99.90;;;;;;6218078;23;20013;-91
2022/07/31 08:26:03;;;;;;;3.30;1.92;;;20.60;99.90;;;;;;6193480;23;20466;-90
2022/07/31 08:28:29;;;;;;;4.38;2.53;;;20.70;99.90;;;;;;6193418;23;20016;-91
2022/07/31 08:33:31;;;;;;;4.95;2.97;;;20.80;99.90;;;;;;6276421;22;20027;-91
2022/07/31 08:35:58;;;;;;;4.95;2.90;;;20.90;99.90;;;;;;6224648;22;20351;-90
2022/07/31 08:38:23;;;;;;;6.30;3.17;;;20.90;99.90;;;;;;6225429;22;20023;-90
2022/07/31 08:40:49;;;;;;;4.38;2.78;;;20.90;99.90;;;;;;6225538;22;20015;-90
2022/07/31 08:43:15;;;;;;;3.90;2.35;;;20.90;99.90;;;;;;6224735;22;20055;-92
2022/07/31 08:45:51;;;;;;;4.47;2.28;;;20.90;99.90;;;;;;6225076;22;20027;-91
2022/07/31 08:56:28;;;;;;;4.40;2.65;;;20.90;99.90;;;;;;6274237;22;20031;-91
2022/07/31 08:58:57;;;;;;;3.92;1.98;;;20.90;99.90;;;;;;6227929;22;20106;-95
2022/07/31 09:01:23;;;;;;;7.05;2.47;;;20.90;99.90;;;;;;6251727;22;20078;-92
2022/07/31 09:26:14;;;;;;;;;;;;;;;;;;;;;
2022/07/31 09:29:21;;;;;;;5.20;2.60;;;20.60;99.90;;;;;;6316968;22;20026;-87
2022/07/31 09:31:46;;;;;;;5.68;2.83;;;20.50;99.90;;;;;;6290788;22;20041;-86
2022/07/31 09:34:12;;;;;;;5.63;3.25;;;20.40;99.90;;;;;;6292390;22;20452;-86
2022/07/31 09:36:38;;;;;;;7.03;3.63;;;20.40;99.90;;;;;;6315419;22;20015;-86
2022/07/31 09:39:12;;;;;;;7.10;3.92;;;20.40;99.90;;;;;;6288182;22;20049;-86
2022/07/31 09:41:50;;;;;;;6.88;3.95;;;20.30;99.90;;;;;;6312954;22;20026;-86
2022/07/31 09:44:16;;;;;;;6.78;3.85;;;20.30;99.90;;;;;;6313100;22;20086;-90
2022/07/31 09:46:44;;;;;;;6.88;4.18;;;20.30;99.90;;;;;;6289001;22;20054;-86
2022/07/31 09:49:09;;;;;;;9.05;4.40;;;20.20;99.90;;;;;;6343291;22;20045;-89
2022/07/31 09:51:43;;;;;;;8.02;3.70;;;20.20;99.90;;;;;;6317013;22;20372;-92
2022/07/31 09:54:20;;;;;;;7.18;3.92;;;20.30;99.90;;;;;;6288802;22;20011;-87
2022/07/31 09:56:48;;;;;;;;;;;20.20;99.90;;;;;;6321359;22;20046;-88
2022/07/31 09:59:15;;;;;;;7.80;4.32;;;20.20;99.90;;;;;;6294182;22;19921;-87
2022/07/31 10:01:45;;;;;;;6.78;4.25;;;20.20;99.90;;;;;;6322317;22;20026;-89
2022/07/31 10:04:14;;;;;;;8.95;4.82;;;20.20;99.90;;;;;;6295405;22;20076;-88
2022/07/31 10:19:39;;;;;;;8.25;5.00;;;20.00;99.90;;;;;;6329144;22;20019;-91
2022/07/31 10:23:11;;;;;;;8.15;4.15;;;20.00;99.90;;;;;;6285415;22;20023;-90
2022/07/31 11:12:25;;;;;;;7.85;5.15;;;19.90;99.90;;;;;;6312085;22;20034;-90
2022/07/31 11:14:51;;;;;;;8.07;4.55;;;19.80;99.90;;;;;;6288019;22;20015;-90
2022/07/31 11:17:17;;;;;;;7.97;4.65;;;19.90;99.90;;;;;;6286561;22;20411;-88
2022/07/31 11:19:43;;;;;;;;;;;19.80;99.90;;;;;;6311914;22;20014;-89
2022/07/31 11:22:14;;;;;;;8.40;5.20;;;19.90;99.90;;;;;;6311304;22;20039;-93
2022/07/31 11:24:52;;;;;;;9.30;5.18;;;19.90;99.90;;;;;;6285805;22;20340;-90
2022/07/31 11:27:28;;;;;;;8.10;4.90;;;19.80;99.90;;;;;;6286437;22;20011;-90
2022/07/31 11:30:03;;;;;;;9.15;5.35;;;19.80;99.90;;;;;;6286233;22;20011;-88
2022/07/31 11:32:35;;;;;;;7.93;5.03;;;19.80;99.90;;;;;;6286639;22;20015;-92
2022/07/31 12:03:32;;;;;;;8.95;5.10;;;19.70;99.90;;;;;;6338767;22;20019;-92
2022/07/31 12:05:58;;;;;;;6.97;4.50;;;19.70;99.90;;;;;;6286485;22;20043;-91
2022/07/31 12:08:25;;;;;;;7.95;4.50;;;19.70;99.90;;;;;;6311559;22;20075;-90
2022/07/31 12:11:01;;;;;;;9.13;4.80;;;19.60;99.90;;;;;;6311287;22;20026;-87
2022/07/31 12:13:28;;;;;;;7.65;4.60;;;19.60;99.90;;;;;;6312098;22;20075;-90
2022/07/31 12:16:06;;;;;;;8.77;5.13;;;19.60;99.90;;;;;;6287833;22;20019;-92
2022/07/31 12:18:47;;;;;;;8.10;5.03;;;19.60;99.90;;;;;;6316341;22;20021;-96
2022/07/31 12:21:13;;;;;;;8.93;5.20;;;19.50;99.90;;;;;;6290582;22;20411;-95
2022/07/31 12:23:41;;;;;;;8.60;5.05;;;19.50;99.90;;;;;;6290173;22;20014;-91
2022/07/31 12:26:33;;;;;;;7.82;4.78;;;19.50;99.90;;;;;;6301822;22;20026;-92
2022/07/31 12:29:10;;;;;;;8.77;5.43;;;19.40;99.90;;;;;;6288134;22;20015;-96
2022/07/31 12:32:02;;;;;;;7.63;5.32;;;19.30;99.90;;;;;;6302279;22;20019;-92
2022/07/31 12:35:09;;;;;;;11.00;6.25;;;19.40;99.90;;;;;;6288721;22;20075;-93
2022/07/31 13:09:35;;;;;;;5.68;2.83;;;19.40;99.90;;;;;;6350129;22;20101;-93
2022/07/31 15:01:18;;;;;;;6.20;2.45;;;19.90;99.90;;;;;;6308523;22;20027;-91
2022/07/31 15:03:43;;;;;;;3.25;1.58;;;20.00;99.90;;;;;;6286090;22;20050;-89
2022/07/31 15:06:19;;;;;;;3.83;1.58;;;20.00;99.90;;;;;;6286091;22;20064;-90
2022/07/31 15:08:45;;;;;;;3.70;1.65;;;20.10;99.90;;;;;;6285834;22;20145;-90
2022/07/31 15:11:10;;;;;;;4.30;1.77;;;20.20;99.90;;;;;;6286086;22;20051;-88
2022/07/31 15:13:36;;;;;;;3.92;1.75;;;20.30;99.90;;;;;;6311681;22;20424;-90
2022/07/31 15:16:03;;;;;;;3.83;1.75;;;20.40;99.90;;;;;;6285617;22;20503;-90
2022/07/31 15:18:28;;;;;;;3.40;1.30;;;20.40;99.90;;;;;;6285491;22;20097;-87
2022/07/31 15:20:57;;;;;;;4.65;1.98;;;20.40;99.90;;;;;;6285592;22;20053;-90
2022/07/31 15:23:23;;;;;;;3.90;1.35;;;20.40;99.90;;;;;;6310967;22;20014;-88
2022/07/31 15:26:09;;;;;;;4.22;1.92;;;20.40;99.90;;;;;;6285689;22;20018;-89
2022/07/31 15:28:52;;;;;;;3.10;1.30;;;20.40;99.90;;;;;;6285751;22;20014;-88
2022/07/31 15:31:46;;;;;;;3.97;1.50;;;20.40;99.90;;;;;;6286785;22;20026;-88
2022/07/31 15:34:22;;;;;;;4.00;1.80;;;20.30;99.90;;;;;;6285699;22;20449;-90
2022/07/31 15:36:48;;;;;;;3.50;1.70;;;20.30;99.90;;;;;;6311693;22;20100;-88
2022/07/31 15:39:20;;;;;;;4.00;1.50;;;20.40;99.90;;;;;;6311413;22;20015;-91
2022/07/31 15:41:45;;;;;;;3.88;1.58;;;20.40;99.90;;;;;;6285512;22;20022;-89
2022/07/31 15:46:49;;;;;;;3.65;1.33;;;20.40;99.90;;;;;;6301953;22;20038;-90
2022/07/31 21:01:30;;;;;;;1.80;0.67;;;19.00;99.90;;;;;;6235438;22;1617675;-94
2022/07/31 21:03:57;;;;;;;0.70;0.30;;;19.00;99.90;;;;;;6242131;22;20000;-91
2022/07/31 21:06:51;;;;;;;3.03;0.50;;;19.00;99.90;;;;;;6237826;22;20015;-92
2022/07/31 21:09:16;;;;;;;0.45;0.30;;;19.00;99.90;;;;;;6260989;22;20010;-91
2022/07/31 22:09:34;;;;;;;6.22;2.30;;;18.90;99.90;;;;;;6281846;22;20140;-94
2022/07/31 22:12:10;;;;;;;5.88;2.58;;;18.90;99.90;;;;;;6225763;22;20019;-96
2022/07/31 22:14:35;;;;;;;6.50;3.40;;;18.90;99.90;;;;;;6225539;22;20015;-92
2022/07/31 22:17:01;;;;;;;6.97;2.90;;;18.90;99.90;;;;;;6225981;22;20077;-93
2022/07/31 22:19:27;;;;;;;7.97;3.67;;;18.90;99.90;;;;;;6227903;22;20014;-95
2022/07/31 22:22:02;;;;;;;6.43;3.08;;;18.90;99.90;;;;;;6227972;22;20350;-95
2022/07/31 22:25:13;;;;;;;;;;;;;;;;;;;;;
2022/07/31 23:29:57;;;;;;;4.15;1.60;;;18.60;99.90;;;;;;6276551;22;20028;-95
2022/07/31 23:32:24;;;;;;;3.70;1.67;;;18.60;99.90;;;;;;6224916;22;20055;-94
2022/07/31 23:34:55;;;;;;;4.03;1.77;;;18.60;99.90;;;;;;6225242;22;20051;-94
2022/07/31 23:40:07;;;;;;;3.55;1.45;;;18.50;99.90;;;;;;6250609;22;20016;-94
2022/07/31 23:42:39;;;;;;;3.05;1.45;;;18.50;99.90;;;;;;6226053;22;20096;-95
2022/07/31 23:45:13;;;;;;;5.15;1.63;;;18.50;99.90;;;;;;6224832;22;20016;-95
